Time;durP1;ratioP1;P1;durP2;ratioP2;P2;SDS_P1;SDS_P2;PMS_P1;PMS_P2;Temp;Humidity;BMP_temperature;BMP_pressure;BME280_temperature;BME280_humidity;BME280_pressure;Samples;Min_cycle;Max_cycle;Signal;HPM_P1;HPM_P2
2023/12/05 00:00:40;;;;;;;3.20;2.30;;;;;;;-2.79;100.00;101204.44;104306;1260;71925;-52
2023/12/05 00:03:08;;;;;;;3.50;1.80;;;;;;;-2.80;100.00;101205.46;106482;1260;65964;-51
2023/12/05 00:05:36;;;;;;;3.00;2.00;;;;;;;-2.82;100.00;101210.52;104342;1259;72715;-51
2023/12/05 00:08:04;;;;;;;4.10;2.30;;;;;;;-2.84;100.00;101213.95;104314;1264;59909;-52
2023/12/05 00:10:32;;;;;;;2.60;2.10;;;;;;;-2.87;100.00;101210.53;106592;1260;62227;-52
2023/12/05 00:13:03;;;;;;;5.60;2.60;;;;;;;-2.89;100.00;101209.08;104327;1258;75283;-52
2023/12/05 00:15:31;;;;;;;5.00;2.90;;;;;;;-2.93;100.00;101208.42;104433;1263;65504;-52
2023/12/05 00:17:58;;;;;;;2.80;1.60;;;;;;;-2.98;100.00;101215.46;104573;1260;72897;-50
2023/12/05 00:20:25;;;;;;;4.10;2.10;;;;;;;-3.05;100.00;101222.65;104450;1260;59601;-49
2023/12/05 00:22:53;;;;;;;4.50;2.70;;;;;;;-3.08;100.00;101224.66;104396;1260;61234;-48
2023/12/05 00:25:20;;;;;;;5.40;3.60;;;;;;;-3.13;100.00;101228.54;104442;1260;73339;-51
2023/12/05 00:27:48;;;;;;;4.30;3.00;;;;;;;-3.19;100.00;101230.14;104610;1260;66724;-52
2023/12/05 00:30:16;;;;;;;4.50;3.10;;;;;;;-3.24;100.00;101227.71;104321;1260;71420;-52
2023/12/05 00:32:43;;;;;;;6.70;4.20;;;;;;;-3.28;100.00;101230.17;104510;1266;59786;-51
2023/12/05 00:35:11;;;;;;;6.50;4.10;;;;;;;-3.33;100.00;101229.34;104548;1262;59657;-51
2023/12/05 00:37:38;;;;;;;6.90;3.10;;;;;;;-3.38;100.00;101229.16;104452;1262;73102;-51
2023/12/05 00:40:06;;;;;;;5.20;3.70;;;;;;;-3.41;100.00;101229.43;104267;1263;66938;-51
2023/12/05 00:42:34;;;;;;;7.70;4.20;;;;;;;-3.44;100.00;101230.23;104756;1260;72775;-52
2023/12/05 00:45:01;;;;;;;7.00;4.40;;;;;;;-3.46;100.00;101234.21;104244;1260;59695;-51
2023/12/05 00:47:28;;;;;;;7.30;4.40;;;;;;;-3.47;100.00;101233.99;104568;1260;60541;-50
2023/12/05 00:49:56;;;;;;;6.90;3.80;;;;;;;-3.46;100.00;101235.60;108346;1262;71451;-52
2023/12/05 00:52:23;;;;;;;8.30;4.20;;;;;;;-3.46;100.00;101240.17;108729;1259;66126;-49
2023/12/05 00:54:51;;;;;;;6.50;4.50;;;;;;;-3.45;100.00;101240.02;108525;1259;71450;-49
2023/12/05 00:57:18;;;;;;;5.50;3.60;;;;;;;-3.44;100.00;101238.12;108563;1260;59404;-51
2023/12/05 00:59:46;;;;;;;5.60;3.80;;;;;;;-3.44;100.00;101238.31;108720;1260;60100;-51
2023/12/05 01:02:13;;;;;;;7.10;4.90;;;;;;;-3.44;100.00;101237.43;108547;1260;73402;-49
2023/12/05 01:04:40;;;;;;;9.10;5.00;;;;;;;-3.43;100.00;101241.15;108659;1259;66775;-50
2023/12/05 01:07:12;;;;;;;7.80;5.50;;;;;;;-3.43;100.00;101241.33;106487;1264;71453;-49
2023/12/05 01:09:40;;;;;;;10.70;6.20;;;;;;;-3.43;100.00;101241.48;104449;1260;59911;-51
2023/12/05 01:12:10;;;;;;;13.60;7.80;;;;;;;-3.45;100.00;101242.84;104486;1262;59938;-52
2023/12/05 01:14:38;;;;;;;10.80;6.80;;;;;;;-3.48;100.00;101241.69;108514;1259;75479;-51
2023/12/05 01:17:06;;;;;;;8.50;5.60;;;;;;;-3.51;100.00;101238.27;108542;1260;65625;-52
2023/12/05 01:19:35;;;;;;;12.40;7.50;;;;;;;-3.54;100.00;101246.59;104607;1265;71451;-51
2023/12/05 01:22:03;;;;;;;10.50;6.70;;;;;;;-3.58;100.00;101248.73;104385;1260;62039;-51
2023/12/05 01:24:30;;;;;;;11.60;6.30;;;;;;;-3.61;100.00;101248.79;105148;1262;59644;-50
2023/12/05 01:26:58;;;;;;;11.20;6.50;;;;;;;-3.65;100.00;101245.52;104427;1260;72190;-49
2023/12/05 01:29:25;;;;;;;10.30;6.50;;;;;;;-3.68;100.00;101244.88;104275;1260;64748;-51
2023/12/05 01:31:53;;;;;;;8.90;6.50;;;;;;;-3.71;100.00;101242.52;104411;1260;71471;-52
2023/12/05 01:34:21;;;;;;;9.60;6.40;;;;;;;-3.73;100.00;101241.54;104060;1265;60324;-50
2023/12/05 01:36:48;;;;;;;9.70;7.60;;;;;;;-3.77;100.00;101242.13;104512;1260;60017;-51
2023/12/05 01:39:16;;;;;;;10.40;6.60;;;;;;;-3.81;100.00;101241.46;104350;1260;73546;-51
2023/12/05 01:41:44;;;;;;;10.70;7.00;;;;;;;-3.84;100.00;101234.04;104372;1262;66768;-52
2023/12/05 01:44:11;;;;;;;10.90;7.60;;;;;;;-3.86;100.00;101233.79;104179;1260;72725;-50
2023/12/05 01:46:39;;;;;;;14.70;7.40;;;;;;;-3.88;100.00;101233.34;104291;1262;59912;-52
2023/12/05 01:49:06;;;;;;;12.20;8.20;;;;;;;-3.90;100.00;101232.38;104153;1259;60251;-51
2023/12/05 01:51:41;;;;;;;;;;;;;;;-3.94;100.00;101225.79;104211;1260;73037;-51
2023/12/05 01:54:08;;;;;;;12.80;7.70;;;;;;;-3.99;100.00;101222.30;104949;1260;68384;-50
2023/12/05 01:56:36;;;;;;;12.30;7.20;;;;;;;-4.04;100.00;101218.79;104241;1263;71912;-50
2023/12/05 01:59:03;;;;;;;13.80;8.10;;;;;;;-4.10;100.00;101220.15;104214;1263;60626;-50
2023/12/05 02:01:31;;;;;;;9.30;6.50;;;;;;;-4.16;100.00;101217.33;104436;1263;61680;-50
2023/12/05 02:03:58;;;;;;;10.40;7.80;;;;;;;-4.22;100.00;101216.96;104432;1258;72698;-50
2023/12/05 02:06:26;;;;;;;14.60;7.80;;;;;;;-4.27;100.00;101213.98;104524;1263;68017;-50
2023/12/05 02:08:54;;;;;;;11.50;7.40;;;;;;;-4.32;100.00;101211.86;104557;1260;71219;-51
2023/12/05 02:11:21;;;;;;;15.20;8.40;;;;;;;-4.37;100.00;101210.80;104084;1261;61400;-52
2023/12/05 02:13:48;;;;;;;8.40;6.60;;;;;;;-4.44;100.00;101209.36;104225;1263;60544;-51
2023/12/05 02:16:29;;;;;;;9.80;6.10;;;;;;;-4.48;100.00;101204.80;104276;1260;72976;-52
2023/12/05 02:19:22;;;;;;;12.70;8.50;;;;;;;-4.51;100.00;101209.81;104425;1257;66106;-52
2023/12/05 02:21:50;;;;;;;8.50;5.50;;;;;;;-4.53;100.00;101210.58;105680;1257;71374;-50
2023/12/05 02:24:27;;;;;;;8.40;6.40;;;;;;;-4.55;100.00;101208.42;104232;1257;60447;-51
2023/12/05 02:27:07;;;;;;;9.30;5.70;;;;;;;-4.57;100.00;101210.97;104737;1257;60383;-51
2023/12/05 02:29:46;;;;;;;10.70;6.60;;;;;;;-4.60;100.00;101212.28;104586;1263;73996;-49
2023/12/05 02:32:13;;;;;;;8.00;5.10;;;;;;;-4.62;100.00;101209.25;104629;1260;65778;-50
2023/12/05 02:34:41;;;;;;;9.90;6.80;;;;;;;-4.65;100.00;101207.89;104308;1263;71480;-51
2023/12/05 02:37:24;;;;;;;10.00;6.00;;;;;;;-4.69;100.00;101207.78;104068;1265;60604;-51
2023/12/05 02:40:02;;;;;;;10.60;6.50;;;;;;;-4.70;100.00;101211.92;104589;1257;60503;-51
2023/12/05 02:42:29;;;;;;;10.60;6.80;;;;;;;-4.72;100.00;101210.61;106162;1257;72118;-51
2023/12/05 02:44:57;;;;;;;8.00;6.10;;;;;;;-4.76;100.00;101209.78;104595;1257;66175;-51
2023/12/05 02:47:24;;;;;;;10.30;6.90;;;;;;;-4.79;100.00;101209.48;104477;1262;71776;-51
2023/12/05 02:49:52;;;;;;;10.30;6.70;;;;;;;-4.83;100.00;101208.81;104419;1262;60588;-51
2023/12/05 02:52:20;;;;;;;12.30;7.10;;;;;;;-4.85;100.00;101210.83;104550;1262;60581;-51
2023/12/05 02:54:47;;;;;;;13.20;8.00;;;;;;;-4.88;100.00;101211.77;104495;1257;73908;-51
2023/12/05 02:57:15;;;;;;;8.90;6.70;;;;;;;-4.91;100.00;101211.64;104502;1257;65943;-52
2023/12/05 02:59:43;;;;;;;10.50;6.00;;;;;;;-4.94;100.00;101214.18;104568;1262;70459;-51
2023/12/05 03:02:10;;;;;;;10.10;7.60;;;;;;;-4.97;100.00;101217.23;105130;1256;61718;-51
2023/12/05 03:04:42;;;;;;;13.30;7.00;;;;;;;-5.00;100.00;101219.55;104758;1259;60517;-51
2023/12/05 03:07:10;;;;;;;12.60;6.40;;;;;;;-5.02;100.00;101213.54;108773;1255;74682;-51
2023/12/05 03:09:37;;;;;;;10.80;7.30;;;;;;;-5.04;100.00;101213.84;106396;1254;67103;-51
2023/12/05 03:12:05;;;;;;;12.70;6.80;;;;;;;-5.04;100.00;101214.86;104804;1254;72687;-51
2023/12/05 03:14:33;;;;;;;9.80;6.20;;;;;;;-5.04;100.00;101220.46;104791;1259;61382;-51
2023/12/05 03:17:00;;;;;;;10.30;6.10;;;;;;;-5.04;100.00;101220.64;104757;1260;60528;-52
2023/12/05 03:19:28;;;;;;;9.50;6.10;;;;;;;-5.04;100.00;101223.27;104821;1259;73884;-51
2023/12/05 03:21:56;;;;;;;9.50;7.10;;;;;;;-5.04;100.00;101220.46;104762;1258;66966;-52
2023/12/05 03:24:24;;;;;;;7.70;5.70;;;;;;;-5.05;100.00;101219.57;104815;1254;73158;-52
2023/12/05 03:26:51;;;;;;;12.00;6.80;;;;;;;-5.06;100.00;101218.27;104683;1254;60507;-52
2023/12/05 03:29:19;;;;;;;9.70;6.70;;;;;;;-5.08;100.00;101222.76;104705;1255;60523;-52
2023/12/05 03:31:46;;;;;;;12.00;7.70;;;;;;;-5.11;100.00;101216.89;104719;1254;72903;-51
2023/12/05 03:34:14;;;;;;;12.10;7.10;;;;;;;-5.13;100.00;101221.00;104751;1255;65404;-51
2023/12/05 03:36:41;;;;;;;11.60;7.10;;;;;;;-5.16;100.00;101226.67;104514;1254;72328;-51
2023/12/05 03:39:09;;;;;;;11.60;7.20;;;;;;;-5.20;100.00;101222.66;104735;1257;60466;-51
2023/12/05 03:41:37;;;;;;;9.70;6.40;;;;;;;-5.24;100.00;101221.29;104605;1256;60344;-51
2023/12/05 03:44:04;;;;;;;9.80;7.30;;;;;;;-5.27;100.00;101222.22;104838;1254;74496;-51
2023/12/05 03:46:32;;;;;;;15.90;8.10;;;;;;;-5.30;100.00;101224.19;104585;1259;65518;-52
2023/12/05 03:48:59;;;;;;;12.60;8.30;;;;;;;-5.33;100.00;101219.52;104590;1259;74303;-51
2023/12/05 03:51:27;;;;;;;11.50;7.60;;;;;;;-5.37;100.00;101216.40;108932;1254;60541;-52
2023/12/05 03:53:54;;;;;;;10.40;6.80;;;;;;;-5.41;100.00;101223.23;108965;1254;58818;-52
2023/12/05 03:56:22;;;;;;;10.90;7.40;;;;;;;-5.46;100.00;101218.16;108962;1256;73893;-51
2023/12/05 03:58:51;;;;;;;11.00;6.30;;;;;;;-5.49;100.00;101218.56;108944;1254;65629;-52
2023/12/05 04:01:18;;;;;;;10.30;6.30;;;;;;;-5.49;100.00;101216.96;108838;1254;72846;-52
2023/12/05 04:03:45;;;;;;;14.40;7.40;;;;;;;-5.49;100.00;101217.48;106219;1257;60457;-52
2023/12/05 04:06:23;;;;;;;7.30;5.40;;;;;;;-5.51;100.00;101212.35;104838;1255;60709;-52
2023/12/05 04:08:51;;;;;;;9.20;6.30;;;;;;;-5.52;100.00;101212.10;104600;1257;72724;-52
2023/12/05 04:11:28;;;;;;;11.00;6.00;;;;;;;-5.52;100.00;101209.48;104938;1254;67462;-51
2023/12/05 04:13:56;;;;;;;8.00;5.20;;;;;;;-5.53;100.00;101203.52;108862;1256;71436;-52
2023/12/05 04:16:24;;;;;;;10.80;5.90;;;;;;;-5.54;100.00;101201.39;108734;1254;59334;-52
2023/12/05 04:18:52;;;;;;;7.20;5.00;;;;;;;-5.53;100.00;101203.00;105612;1259;60575;-51
2023/12/05 04:21:20;;;;;;;9.10;6.40;;;;;;;-5.51;100.00;101202.71;105143;1254;73875;-51
2023/12/05 04:23:47;;;;;;;8.00;5.70;;;;;;;-5.51;100.00;101202.55;105722;1254;66843;-51
2023/12/05 04:26:16;;;;;;;10.80;6.40;;;;;;;-5.52;100.00;101199.02;104992;1259;72776;-52
2023/12/05 04:28:44;;;;;;;11.40;7.30;;;;;;;-5.52;100.00;101203.03;105092;1257;60561;-51
2023/12/05 04:31:12;;;;;;;10.90;6.80;;;;;;;-5.53;100.00;101200.38;104863;1260;60447;-52
2023/12/05 04:33:40;;;;;;;10.50;6.60;;;;;;;-5.55;100.00;101203.64;104984;1260;75280;-52
2023/12/05 04:36:09;;;;;;;12.80;7.90;;;;;;;-5.57;100.00;101209.32;106088;1259;66774;-53
2023/12/05 04:38:36;;;;;;;18.60;10.40;;;;;;;-5.59;100.00;101212.39;104927;1260;71923;-51
2023/12/05 04:41:04;;;;;;;15.20;10.10;;;;;;;-5.59;100.00;101216.23;105100;1258;60513;-51
2023/12/05 04:43:31;;;;;;;16.30;10.10;;;;;;;-5.60;100.00;101213.91;106642;1256;62203;-50
2023/12/05 04:45:59;;;;;;;15.60;10.40;;;;;;;-5.61;100.00;101212.66;104906;1254;72163;-51
2023/12/05 04:48:26;;;;;;;18.50;11.70;;;;;;;-5.64;100.00;101213.58;106023;1259;66728;-51
2023/12/05 04:50:54;;;;;;;18.60;11.30;;;;;;;-5.67;100.00;101209.60;104643;1260;72666;-51
2023/12/05 04:53:21;;;;;;;15.60;10.20;;;;;;;-5.69;100.00;101206.89;104693;1259;60857;-51
2023/12/05 04:55:49;;;;;;;17.20;11.10;;;;;;;-5.70;100.00;101209.48;104513;1259;60345;-51
2023/12/05 04:58:16;;;;;;;19.00;11.40;;;;;;;-5.72;100.00;101206.46;104836;1259;74294;-51
2023/12/05 05:00:44;;;;;;;20.60;12.60;;;;;;;-5.73;100.00;101207.83;104703;1259;65973;-51
2023/12/05 05:03:11;;;;;;;20.30;12.40;;;;;;;-5.73;100.00;101209.74;105699;1259;72630;-51
2023/12/05 05:05:39;;;;;;;18.30;11.80;;;;;;;-5.73;100.00;101212.70;105307;1260;62628;-51
2023/12/05 05:08:07;;;;;;;21.20;12.40;;;;;;;-5.73;100.00;101215.52;104728;1255;60620;-51
2023/12/05 05:10:34;;;;;;;22.00;11.60;;;;;;;-5.73;100.00;101214.98;104868;1260;74009;-51
2023/12/05 05:13:02;;;;;;;24.70;12.80;;;;;;;-5.74;100.00;101214.40;104654;1259;67923;-52
2023/12/05 05:15:29;;;;;;;22.00;13.40;;;;;;;-5.74;100.00;101216.69;104953;1254;72734;-51
2023/12/05 05:17:57;;;;;;;23.40;13.30;;;;;;;-5.73;100.00;101218.27;105864;1254;60378;-51
2023/12/05 05:20:25;;;;;;;21.80;12.40;;;;;;;-5.73;100.00;101217.25;105222;1254;60373;-51
2023/12/05 05:22:53;;;;;;;20.70;14.40;;;;;;;-5.72;100.00;101226.02;104856;1255;73987;-51
2023/12/05 05:25:23;;;;;;;21.10;13.90;;;;;;;-5.74;100.00;101224.70;105641;1254;67166;-49
2023/12/05 05:27:51;;;;;;;22.20;13.80;;;;;;;-5.76;100.00;101229.02;104765;1257;71480;-49
2023/12/05 05:30:19;;;;;;;22.50;13.40;;;;;;;-5.76;100.00;101230.91;105441;1259;60430;-51
2023/12/05 05:32:47;;;;;;;19.10;13.50;;;;;;;-5.77;100.00;101233.48;104959;1260;60475;-50
2023/12/05 05:35:14;;;;;;;23.00;14.00;;;;;;;-5.79;100.00;101227.33;105703;1259;72557;-51
2023/12/05 05:37:42;;;;;;;23.70;14.70;;;;;;;-5.81;100.00;101231.42;104772;1260;67436;-51
2023/12/05 05:40:10;;;;;;;23.70;15.20;;;;;;;-5.90;100.00;101230.71;104669;1260;72710;-51
2023/12/05 05:42:37;;;;;;;23.90;14.90;;;;;;;-5.97;100.00;101235.84;104563;1259;60443;-50
2023/12/05 05:45:06;;;;;;;25.40;13.00;;;;;;;-6.00;100.00;101242.70;104649;1256;60527;-51
2023/12/05 05:47:33;;;;;;;50.70;30.90;;;;;;;-6.02;100.00;101242.30;105718;1256;73887;-53
2023/12/05 05:50:00;;;;;;;23.40;15.20;;;;;;;-6.02;100.00;101246.32;104601;1259;67546;-50
2023/12/05 05:52:33;;;;;;;21.90;14.50;;;;;;;-6.03;100.00;101252.90;104635;1257;71425;-50
2023/12/05 05:55:00;;;;;;;23.70;15.50;;;;;;;-6.05;100.00;101254.59;104736;1260;62241;-52
2023/12/05 05:57:28;;;;;;;26.30;13.70;;;;;;;-6.04;100.00;101259.32;104721;1258;60469;-50
2023/12/05 05:59:55;;;;;;;26.50;15.40;;;;;;;-6.05;100.00;101266.48;104686;1254;74479;-52
2023/12/05 06:02:23;;;;;;;26.30;15.30;;;;;;;-6.06;100.00;101266.45;105170;1260;69573;-52
2023/12/05 06:04:51;;;;;;;35.90;20.10;;;;;;;-6.02;100.00;101270.95;104916;1260;71520;-51
2023/12/05 06:07:19;;;;;;;53.60;25.20;;;;;;;-5.97;100.00;101268.71;104655;1255;61487;-52
2023/12/05 06:09:46;;;;;;;44.80;23.70;;;;;;;-5.94;100.00;101271.63;104679;1260;60450;-52
2023/12/05 06:12:14;;;;;;;26.80;16.30;;;;;;;-5.92;100.00;101272.24;104783;1259;73985;-52
2023/12/05 06:14:41;;;;;;;26.30;14.60;;;;;;;-5.88;100.00;101274.69;104897;1260;66704;-52
2023/12/05 06:17:09;;;;;;;29.40;15.50;;;;;;;-5.86;100.00;101278.59;104972;1259;74615;-52
2023/12/05 06:19:36;;;;;;;25.50;14.60;;;;;;;-5.85;100.00;101286.67;105138;1260;63858;-52
2023/12/05 06:22:03;;;;;;;23.70;14.40;;;;;;;-5.84;100.00;101293.02;104960;1254;60513;-52
2023/12/05 06:24:31;;;;;;;23.70;15.10;;;;;;;-5.84;100.00;101295.83;104951;1254;72345;-52
2023/12/05 06:26:59;;;;;;;26.70;16.90;;;;;;;-5.82;100.00;101293.80;104790;1258;66754;-52
2023/12/05 06:29:27;;;;;;;24.00;14.10;;;;;;;-5.83;100.00;101295.31;104743;1256;71418;-52
2023/12/05 06:31:54;;;;;;;29.50;17.40;;;;;;;-5.87;100.00;101296.91;104691;1259;62239;-52
2023/12/05 06:34:23;;;;;;;28.90;17.30;;;;;;;-5.91;100.00;101299.04;104960;1257;60661;-52
2023/12/05 06:36:51;;;;;;;30.00;19.70;;;;;;;-5.93;100.00;101294.73;105087;1258;74350;-52
2023/12/05 06:39:19;;;;;;;30.10;17.80;;;;;;;-5.95;100.00;101291.02;104998;1259;65780;-52
2023/12/05 06:41:46;;;;;;;26.20;14.50;;;;;;;-5.93;100.00;101287.59;105016;1255;71492;-52
2023/12/05 06:44:14;;;;;;;21.20;12.60;;;;;;;-5.93;100.00;101285.50;104840;1260;61835;-51
2023/12/05 06:46:41;;;;;;;23.40;14.20;;;;;;;-5.92;100.00;101285.86;104954;1260;60462;-52
2023/12/05 06:49:08;;;;;;;16.50;10.80;;;;;;;-5.91;100.00;101288.92;105008;1260;73476;-52
2023/12/05 06:51:36;;;;;;;19.30;11.30;;;;;;;-5.89;100.00;101292.67;109121;1256;66513;-53
2023/12/05 06:54:03;;;;;;;23.90;14.20;;;;;;;-5.89;100.00;101290.75;109104;1254;73134;-51
2023/12/05 06:56:31;;;;;;;20.90;13.60;;;;;;;-5.86;100.00;101291.52;109182;1253;60464;-51
2023/12/05 06:59:00;;;;;;;23.70;15.10;;;;;;;-5.84;100.00;101291.98;109197;1254;58777;-51
2023/12/05 07:01:28;;;;;;;25.40;16.80;;;;;;;-5.79;100.00;101296.40;109039;1254;72758;-51
2023/12/05 07:03:56;;;;;;;27.40;16.20;;;;;;;-5.74;100.00;101297.13;109234;1253;67129;-51
2023/12/05 07:06:24;;;;;;;26.80;16.50;;;;;;;-5.67;100.00;101297.06;109142;1253;73125;-51
2023/12/05 07:08:51;;;;;;;23.80;14.00;;;;;;;-5.60;100.00;101296.45;106806;1254;60526;-54
2023/12/05 07:11:19;;;;;;;22.80;14.10;;;;;;;-5.55;100.00;101297.04;104834;1258;60066;-51
2023/12/05 07:13:48;;;;;;;25.50;14.10;;;;;;;-5.51;100.00;101301.23;104913;1260;73849;-50
2023/12/05 07:16:15;;;;;;;25.80;15.30;;;;;;;-5.45;100.00;101302.16;105131;1254;65769;-51
2023/12/05 07:18:42;;;;;;;27.20;17.70;;;;;;;-5.39;100.00;101303.80;105173;1259;72466;-50
2023/12/05 07:21:10;;;;;;;29.70;18.50;;;;;;;-5.34;100.00;101304.71;105287;1259;60516;-51
2023/12/05 07:23:38;;;;;;;29.70;16.40;;;;;;;-5.29;100.00;101301.92;105047;1266;60427;-51
2023/12/05 07:26:07;;;;;;;29.80;18.10;;;;;;;-5.28;100.00;101300.38;107505;1260;72691;-51
2023/12/05 07:28:35;;;;;;;34.00;20.60;;;;;;;-5.27;100.00;101299.73;105566;1254;66599;-50
2023/12/05 07:31:02;;;;;;;37.50;22.00;;;;;;;-5.23;100.00;101300.56;104924;1254;71344;-51
2023/12/05 07:33:30;;;;;;;45.50;25.40;;;;;;;-5.19;100.00;101301.63;105012;1260;60386;-51
2023/12/05 07:35:57;;;;;;;36.40;20.80;;;;;;;-5.13;100.00;101300.09;106415;1261;59282;-51
2023/12/05 07:38:25;;;;;;;39.30;21.50;;;;;;;-5.07;100.00;101303.32;104710;1253;71765;-51
2023/12/05 07:40:52;;;;;;;35.20;21.60;;;;;;;-5.00;100.00;101301.69;104604;1254;66778;-52
2023/12/05 07:43:20;;;;;;;37.50;23.10;;;;;;;-4.92;100.00;101298.14;104606;1259;72775;-51
2023/12/05 07:45:47;;;;;;;35.30;21.60;;;;;;;-4.83;100.00;101300.39;104601;1257;61922;-52
2023/12/05 07:48:15;;;;;;;34.20;19.60;;;;;;;-4.74;100.00;101294.08;108922;1254;58838;-52
2023/12/05 07:50:43;;;;;;;37.00;20.60;;;;;;;-4.64;100.00;101297.79;104979;1259;73830;-52
2023/12/05 07:53:11;;;;;;;38.00;21.80;;;;;;;-4.52;100.00;101298.94;104984;1260;65637;-51
2023/12/05 07:55:39;;;;;;;36.90;21.70;;;;;;;-4.40;100.00;101294.30;104610;1254;71391;-52
2023/12/05 07:58:06;;;;;;;37.00;20.60;;;;;;;-4.28;100.00;101295.25;104524;1257;61469;-52
2023/12/05 08:00:38;;;;;;;34.80;21.80;;;;;;;-4.16;100.00;101294.82;104650;1254;60537;-52
2023/12/05 08:03:06;;;;;;;37.90;21.70;;;;;;;-4.03;100.00;101296.67;104388;1260;73797;-53
2023/12/05 08:05:33;;;;;;;44.10;22.70;;;;;;;-3.92;100.00;101297.05;104749;1254;67262;-50
2023/12/05 08:08:00;;;;;;;34.10;21.60;;;;;;;-3.81;100.00;101296.02;104885;1255;71448;-51
2023/12/05 08:10:28;;;;;;;38.50;21.90;;;;;;;-3.70;100.00;101304.11;104985;1258;60591;-52
2023/12/05 08:12:55;;;;;;;39.80;22.00;;;;;;;-3.62;100.00;101305.10;104756;1257;60470;-52
2023/12/05 08:15:23;;;;;;;35.40;21.60;;;;;;;-3.55;100.00;101303.74;104779;1257;73961;-52
2023/12/05 08:17:50;;;;;;;34.30;20.40;;;;;;;-3.51;100.00;101303.20;104788;1258;65964;-51
2023/12/05 08:20:18;;;;;;;34.00;20.60;;;;;;;-3.46;100.00;101305.29;105121;1259;72747;-52
2023/12/05 08:22:46;;;;;;;35.80;21.40;;;;;;;-3.41;100.00;101304.02;104909;1261;60526;-50
2023/12/05 08:25:13;;;;;;;38.60;22.40;;;;;;;-3.35;100.00;101306.52;104855;1256;60540;-51
2023/12/05 08:27:40;;;;;;;38.90;22.20;;;;;;;-3.27;100.00;101307.98;104973;1255;72523;-51
2023/12/05 08:30:08;;;;;;;45.20;21.70;;;;;;;-3.18;100.00;101312.32;104789;1260;66855;-51
2023/12/05 08:32:35;;;;;;;43.10;24.60;;;;;;;-3.09;100.00;101311.23;104875;1260;73001;-51
2023/12/05 08:35:03;;;;;;;43.10;23.90;;;;;;;-2.97;100.00;101312.27;104826;1254;61421;-52
2023/12/05 08:37:32;;;;;;;37.60;22.90;;;;;;;-2.88;100.00;101308.88;106906;1257;60456;-51
2023/12/05 08:39:59;;;;;;;41.70;24.10;;;;;;;-2.79;100.00;101310.22;104843;1257;74705;-51
2023/12/05 08:42:27;;;;;;;43.10;25.10;;;;;;;-2.68;100.00;101308.23;104945;1260;67551;-51
2023/12/05 08:44:55;;;;;;;42.80;23.90;;;;;;;-2.58;100.00;101303.11;104828;1254;72937;-51
2023/12/05 08:47:22;;;;;;;37.60;22.50;;;;;;;-2.48;100.00;101303.92;104820;1254;61144;-51
2023/12/05 08:49:50;;;;;;;42.00;23.30;;;;;;;-2.40;100.00;101295.36;104960;1259;60565;-51
2023/12/05 08:52:19;;;;;;;36.00;20.90;;;;;;;-2.32;100.00;101293.48;104976;1259;72627;-51
2023/12/05 08:54:46;;;;;;;34.10;21.00;;;;;;;-2.24;100.00;101292.81;105629;1254;67379;-52
2023/12/05 08:57:14;;;;;;;35.70;21.20;;;;;;;-2.18;100.00;101292.99;104696;1258;71470;-50
2023/12/05 08:59:42;;;;;;;34.30;20.40;;;;;;;-2.11;100.00;101297.05;104983;1256;60546;-51
2023/12/05 09:02:10;;;;;;;36.00;22.80;;;;;;;-2.05;100.00;101293.00;104949;1258;60543;-51
2023/12/05 09:04:37;;;;;;;32.30;19.30;;;;;;;-2.00;100.00;101283.64;104686;1260;73937;-51
2023/12/05 09:07:05;;;;;;;36.10;19.80;;;;;;;-1.95;100.00;101287.29;104960;1255;65767;-51
2023/12/05 09:09:33;;;;;;;35.60;19.70;;;;;;;-1.92;100.00;101286.49;105337;1254;71466;-51
2023/12/05 09:12:01;;;;;;;23.90;16.00;;;;;;;-1.87;100.00;101284.32;104787;1256;60901;-51
2023/12/05 09:14:28;;;;;;;27.10;16.40;;;;;;;-1.83;100.00;101282.33;105006;1254;60523;-51
2023/12/05 09:16:56;;;;;;;28.00;17.40;;;;;;;-1.78;100.00;101278.41;104880;1254;73936;-51
2023/12/05 09:19:23;;;;;;;29.60;18.20;;;;;;;-1.72;100.00;101278.39;104721;1254;64515;-51
2023/12/05 09:21:52;;;;;;;34.80;20.30;;;;;;;-1.66;100.00;101281.71;105249;1257;71216;-51
2023/12/05 09:24:19;;;;;;;37.00;22.00;;;;;;;-1.59;100.00;101281.86;108982;1254;59009;-52
2023/12/05 09:26:47;;;;;;;35.30;21.60;;;;;;;-1.52;100.00;101283.80;105732;1257;60377;-51
2023/12/05 09:29:15;;;;;;;31.20;21.70;;;;;;;-1.46;100.00;101280.42;104728;1254;75142;-51
2023/12/05 09:31:42;;;;;;;35.00;21.30;;;;;;;-1.42;100.00;101278.07;104641;1254;67041;-52
2023/12/05 09:34:10;;;;;;;34.30;20.90;;;;;;;-1.39;100.00;101276.05;105513;1254;71484;-51
2023/12/05 09:36:38;;;;;;;30.10;20.00;;;;;;;-1.37;100.00;101276.45;104779;1264;60946;-51
2023/12/05 09:39:05;;;;;;;33.80;21.00;;;;;;;-1.38;100.00;101273.79;106699;1254;59656;-51
2023/12/05 09:41:37;;;;;;;34.20;20.90;;;;;;;-1.37;100.00;101275.94;104752;1257;73929;-50
2023/12/05 09:44:05;;;;;;;28.70;18.80;;;;;;;-1.35;100.00;101274.88;104961;1254;65521;-51
2023/12/05 09:46:33;;;;;;;31.30;20.50;;;;;;;-1.35;100.00;101272.96;104859;1254;72783;-51
2023/12/05 09:49:11;;;;;;;29.90;20.50;;;;;;;-1.34;100.00;101278.96;108995;1254;59530;-52
2023/12/05 09:51:39;;;;;;;31.80;20.20;;;;;;;-1.32;100.00;101272.67;108832;1254;58857;-52
2023/12/05 09:54:06;;;;;;;30.30;17.90;;;;;;;-1.30;100.00;101270.80;108758;1254;72739;-52
2023/12/05 09:56:35;;;;;;;25.90;17.40;;;;;;;-1.27;100.00;101265.40;108799;1254;65662;-52
2023/12/05 09:59:03;;;;;;;27.10;18.50;;;;;;;-1.23;100.00;101266.04;108577;1257;72747;-52
2023/12/05 10:01:31;;;;;;;25.40;15.70;;;;;;;-1.17;100.00;101269.33;104736;1258;61970;-52
2023/12/05 10:03:58;;;;;;;21.00;14.60;;;;;;;-1.10;100.00;101270.02;104230;1257;3619642;-52
2023/12/05 10:07:55;;;;;;;29.80;19.30;;;;;;;-1.05;100.00;101354.70;101642;1292;600794;-50
2023/12/05 10:10:22;;;;;;;28.60;19.30;;;;;;;-1.00;100.00;101363.80;103881;1272;60475;-50
2023/12/05 10:12:50;;;;;;;31.30;19.50;;;;;;;-0.94;100.00;101355.86;103869;1267;59960;-50
2023/12/05 10:15:19;;;;;;;30.70;17.20;;;;;;;-0.90;100.00;101346.60;108134;1268;70701;-51
2023/12/05 10:17:47;;;;;;;22.60;15.10;;;;;;;-0.88;100.00;101346.14;108601;1260;68234;-51
2023/12/05 10:20:15;;;;;;;16.40;11.40;;;;;;;-0.88;100.00;101346.49;108512;1260;72670;-51
2023/12/05 10:22:42;;;;;;;19.80;11.70;;;;;;;-0.88;100.00;101342.44;105943;1257;3693476;-51
2023/12/05 10:25:10;;;;;;;21.80;12.70;;;;;;;-0.88;100.00;101339.61;106448;1256;59254;-51
2023/12/05 10:27:39;;;;;;;18.90;11.90;;;;;;;-0.89;100.00;101339.77;104403;1257;72391;-51
2023/12/05 10:30:07;;;;;;;14.00;10.30;;;;;;;-0.90;100.00;101334.46;104476;1257;66370;-51
2023/12/05 10:32:36;;;;;;;17.20;11.10;;;;;;;-0.91;100.00;101329.48;105740;1260;73272;-51
2023/12/05 10:35:04;;;;;;;18.30;10.90;;;;;;;-0.92;100.00;101327.35;104671;1257;60173;-51
2023/12/05 10:37:32;;;;;;;14.30;10.50;;;;;;;-0.93;100.00;101323.10;104818;1256;60464;-51
2023/12/05 10:39:59;;;;;;;21.00;14.70;;;;;;;-0.93;100.00;101324.33;104674;1258;73098;-51
2023/12/05 10:42:28;;;;;;;19.50;12.70;;;;;;;-0.93;100.00;101314.64;104706;1260;67274;-51
2023/12/05 10:44:56;;;;;;;14.50;9.40;;;;;;;-0.94;100.00;101317.45;107007;1258;71465;-51
2023/12/05 10:47:27;;;;;;;14.40;10.00;;;;;;;-0.97;100.00;101312.63;104675;1257;60143;-51
2023/12/05 10:49:55;;;;;;;17.20;9.70;;;;;;;-0.99;100.00;101306.94;104849;1260;60323;-46
2023/12/05 10:52:23;;;;;;;19.40;11.60;;;;;;;-0.99;100.00;101301.80;104438;1260;75483;-50
2023/12/05 10:54:58;;;;;;;17.60;11.10;;;;;;;-0.99;100.00;101302.69;104421;1262;68925;-51
2023/12/05 10:57:30;;;;;;;19.10;11.90;;;;;;;-0.99;100.00;101301.99;104776;1254;72630;-52
2023/12/05 10:59:58;;;;;;;25.10;15.90;;;;;;;-0.98;100.00;101302.89;104561;1254;60257;-51
2023/12/05 11:02:26;;;;;;;16.50;10.60;;;;;;;-0.98;100.00;101300.45;104523;1257;59881;-50
2023/12/05 11:04:54;;;;;;;17.20;10.90;;;;;;;-0.98;100.00;101291.97;104515;1263;73123;-51